createdAt,value
2022-10-14T13:46:49.894Z,16.44
2022-10-14T13:52:45.364Z,16.46
2022-10-14T13:58:13.204Z,15.99
2022-10-14T14:03:23.379Z,15.72
2022-10-14T14:08:39.667Z,15.55
2022-10-14T14:13:54.400Z,15.78
2022-10-14T14:19:08.706Z,15.28
2022-10-14T14:24:18.749Z,15.88
2022-10-14T14:29:29.126Z,15.83
2022-10-14T14:34:34.089Z,15.78
2022-10-14T14:39:38.440Z,15.55
2022-10-14T14:44:43.493Z,15.52
2022-10-14T14:49:51.533Z,15.31
2022-10-14T14:55:00.775Z,15.25
2022-10-14T15:00:06.978Z,15.47
2022-10-14T15:05:12.341Z,15.68
2022-10-14T15:10:23.720Z,15.46
2022-10-14T15:15:30.557Z,15.20
2022-10-14T15:20:36.756Z,15.44
2022-10-14T15:25:40.853Z,14.90
2022-10-14T15:30:53.463Z,14.85
2022-10-14T15:36:00.853Z,15.23
2022-10-14T15:41:06.824Z,14.98
2022-10-14T15:46:31.582Z,14.85
2022-10-14T15:51:36.431Z,14.78
2022-10-14T15:56:40.592Z,14.02
2022-10-14T16:01:45.196Z,14.82
2022-10-14T16:06:50.403Z,14.58
2022-10-14T16:11:58.279Z,14.46
2022-10-14T16:17:03.024Z,14.34
2022-10-14T16:22:07.811Z,13.73
2022-10-14T16:27:14.676Z,14.19
2022-10-14T16:32:18.219Z,14.18
2022-10-14T16:37:24.002Z,13.91
2022-10-14T16:42:27.882Z,14.13
2022-10-14T16:47:31.355Z,13.94
2022-10-14T16:59:40.521Z,13.99
2022-10-14T17:10:44.668Z,12.90
2022-10-14T17:15:50.944Z,13.27
2022-10-14T17:21:07.468Z,13.75
2022-10-14T17:26:18.644Z,13.61
2022-10-14T17:31:23.373Z,13.65
2022-10-14T17:36:31.064Z,13.21
2022-10-14T17:41:37.063Z,13.39
2022-10-14T17:46:42.283Z,13.42
2022-10-14T17:53:04.811Z,13.41
2022-10-14T17:58:14.903Z,13.00
2022-10-14T18:03:20.486Z,13.28
2022-10-14T18:08:28.195Z,13.26
2022-10-14T18:13:57.046Z,13.16
2022-10-14T18:19:05.894Z,13.11
2022-10-14T18:24:55.958Z,13.16
2022-10-14T18:30:06.585Z,13.17
2022-10-14T18:35:13.953Z,13.13
2022-10-14T18:40:21.954Z,13.10
2022-10-14T18:45:35.258Z,12.94
2022-10-14T18:50:41.489Z,11.98
2022-10-14T18:55:45.969Z,12.98
2022-10-14T19:00:52.774Z,12.90
2022-10-14T19:06:00.793Z,12.88
2022-10-14T19:11:06.053Z,12.36
2022-10-14T19:16:16.569Z,12.78
2022-10-14T19:21:22.893Z,12.76
2022-10-14T19:26:29.872Z,12.68
2022-10-14T19:31:44.994Z,12.55
2022-10-14T19:36:53.333Z,11.86
2022-10-14T19:41:58.316Z,12.61
2022-10-14T19:47:07.152Z,12.55
2022-10-14T19:52:11.236Z,12.53
2022-10-14T20:02:52.327Z,12.01
2022-10-14T20:07:57.726Z,12.45
2022-10-14T20:13:03.897Z,11.62
2022-10-14T20:18:11.426Z,12.46
2022-10-14T20:23:21.117Z,12.48
2022-10-14T20:28:32.153Z,12.06
2022-10-14T20:33:53.288Z,11.72
2022-10-14T20:39:00.090Z,12.18
2022-10-14T20:44:04.776Z,12.15
2022-10-14T20:49:11.196Z,11.88
2022-10-14T20:54:16.935Z,11.05
2022-10-14T20:59:21.299Z,12.05
2022-10-14T21:04:27.083Z,11.41
2022-10-14T21:09:32.731Z,12.09
2022-10-14T21:14:41.991Z,11.13
2022-10-14T21:19:47.247Z,11.29
2022-10-14T21:25:00.608Z,11.68
2022-10-14T21:30:04.836Z,10.80
2022-10-14T21:35:11.770Z,11.80
2022-10-14T21:40:17.110Z,10.51
2022-10-14T21:45:21.762Z,11.95
2022-10-14T21:50:28.334Z,10.80
2022-10-14T21:55:36.627Z,10.60
2022-10-14T22:00:40.773Z,10.45
2022-10-14T22:06:14.859Z,12.02
2022-10-14T22:11:21.126Z,11.83
2022-10-14T22:16:25.457Z,12.02
2022-10-14T22:21:32.837Z,11.99
2022-10-14T22:26:38.029Z,12.05
2022-10-14T22:31:42.388Z,11.58
2022-10-14T22:36:48.078Z,12.12
2022-10-14T22:41:52.585Z,12.03
2022-10-14T22:46:56.602Z,11.66
2022-10-14T22:52:02.117Z,11.47
2022-10-14T22:57:06.422Z,11.65
2022-10-14T23:02:10.577Z,12.24
2022-10-14T23:07:15.766Z,11.76
2022-10-14T23:12:19.891Z,12.16
2022-10-14T23:17:23.789Z,12.30
2022-10-14T23:22:29.164Z,12.12
2022-10-14T23:27:36.229Z,11.52
2022-10-14T23:32:40.662Z,12.38
2022-10-14T23:37:46.734Z,12.38
2022-10-14T23:42:51.128Z,11.67
2022-10-14T23:47:55.112Z,11.18
2022-10-14T23:53:01.546Z,12.17
2022-10-14T23:58:05.460Z,12.29
